Time,TemperatureF,DewpointF,PressureIn,WindDirection,WindDirectionDegrees,WindSpeedMPH,WindSpeedGustMPH,Humidity,HourlyPrecipIn,Conditions,Clouds,dailyrainin,SoftwareType,DateUTC
2013-07-09 00:01:00,81.0,58.0,29.76,NNW,338,2.0,5.0,45,0.00,,,0.00,,2013-07-09 06:01:00,
2013-07-09 00:11:00,81.0,58.0,29.76,NNW,338,2.0,5.0,45,0.00,,,0.00,,2013-07-09 06:11:00,
2013-07-09 00:22:00,80.0,57.0,29.76,NNW,348,1.0,3.0,46,0.00,,,0.00,,2013-07-09 06:22:00,
2013-07-09 00:33:00,79.0,57.0,29.77,NE,43,0.0,3.0,47,0.00,,,0.00,,2013-07-09 06:33:00,
2013-07-09 00:43:00,79.0,57.0,29.77,NE,43,0.0,3.0,47,0.00,,,0.00,,2013-07-09 06:43:00,
2013-07-09 00:53:00,79.0,58.0,29.78,North,11,0.0,1.0,49,0.00,,,0.00,,2013-07-09 06:53:00,
2013-07-09 01:02:00,77.0,57.0,29.78,NNE,26,0.0,1.0,51,0.00,,,0.00,,2013-07-09 07:02:00,
2013-07-09 01:11:00,77.0,57.0,29.78,NNE,26,0.0,1.0,51,0.00,,,0.00,,2013-07-09 07:11:00,
2013-07-09 01:22:00,76.0,58.0,29.78,SSE,153,0.0,0.0,54,0.00,,,0.00,,2013-07-09 07:22:00,
2013-07-09 01:33:00,75.0,59.0,29.79,WSW,249,0.0,0.0,57,0.00,,,0.00,,2013-07-09 07:33:00,
2013-07-09 01:43:00,75.0,59.0,29.79,WSW,249,0.0,0.0,57,0.00,,,0.00,,2013-07-09 07:43:00,
2013-07-09 01:53:00,74.0,58.0,29.79,NNE,19,0.0,1.0,58,0.00,,,0.00,,2013-07-09 07:53:00,
2013-07-09 02:01:00,74.0,59.0,29.79,NNE,19,0.0,0.0,59,0.00,,,0.00,,2013-07-09 08:01:00,
2013-07-09 02:11:00,74.0,59.0,29.79,NNE,19,0.0,0.0,59,0.00,,,0.00,,2013-07-09 08:11:00,
2013-07-09 02:22:00,74.0,59.0,29.80,NNW,335,0.0,0.0,59,0.00,,,0.00,,2013-07-09 08:22:00,
2013-07-09 02:33:00,75.0,59.0,29.80,SW,228,0.0,1.0,58,0.00,,,0.00,,2013-07-09 08:33:00,
2013-07-09 02:43:00,75.0,59.0,29.80,SW,228,0.0,1.0,58,0.00,,,0.00,,2013-07-09 08:43:00,
2013-07-09 02:52:00,78.0,57.0,29.80,SE,136,0.0,2.0,48,0.00,,,0.00,,2013-07-09 08:52:00,
2013-07-09 03:02:00,80.0,57.0,29.79,SE,141,1.0,4.0,45,0.00,,,0.00,,2013-07-09 09:02:00,
2013-07-09 03:12:00,80.0,57.0,29.79,SE,141,1.0,4.0,45,0.00,,,0.00,,2013-07-09 09:12:00,
2013-07-09 03:22:00,79.0,56.0,29.79,SSW,207,0.0,5.0,46,0.00,,,0.00,,2013-07-09 09:22:00,
2013-07-09 03:34:00,79.0,57.0,29.78,SE,146,0.0,2.0,47,0.00,,,0.00,,2013-07-09 09:34:00,
2013-07-09 03:42:00,79.0,57.0,29.78,SE,146,0.0,2.0,47,0.00,,,0.00,,2013-07-09 09:42:00,
2013-07-09 03:53:00,78.0,57.0,29.79,SW,217,0.0,3.0,48,0.00,,,0.00,,2013-07-09 09:53:00,
2013-07-09 04:01:00,77.0,58.0,29.79,SW,217,0.0,0.0,52,0.00,,,0.00,,2013-07-09 10:01:00,
2013-07-09 04:11:00,77.0,58.0,29.79,SW,217,0.0,0.0,52,0.00,,,0.00,,2013-07-09 10:11:00,
2013-07-09 04:22:00,75.0,58.0,29.79,SW,216,0.0,0.0,55,0.00,,,0.00,,2013-07-09 10:22:00,
2013-07-09 04:33:00,75.0,59.0,29.78,SW,217,0.0,0.0,57,0.00,,,0.00,,2013-07-09 10:33:00,
2013-07-09 04:42:00,75.0,59.0,29.78,SW,217,0.0,0.0,57,0.00,,,0.00,,2013-07-09 10:42:00,
2013-07-09 04:52:00,73.0,58.0,29.79,SW,217,0.0,0.0,59,0.00,,,0.00,,2013-07-09 10:52:00,
2013-07-09 05:01:00,73.0,58.0,29.79,SW,217,0.0,0.0,59,0.00,,,0.00,,2013-07-09 11:01:00,
2013-07-09 05:11:00,73.0,58.0,29.79,SW,217,0.0,0.0,59,0.00,,,0.00,,2013-07-09 11:11:00,
2013-07-09 05:22:00,73.0,58.0,29.80,SW,217,0.0,1.0,60,0.00,,,0.00,,2013-07-09 11:22:00,
2013-07-09 05:33:00,72.0,58.0,29.79,SW,217,0.0,0.0,62,0.00,,,0.00,,2013-07-09 11:33:00,
2013-07-09 05:42:00,72.0,58.0,29.79,SW,217,0.0,0.0,62,0.00,,,0.00,,2013-07-09 11:42:00,
2013-07-09 05:53:00,71.0,58.0,29.80,SW,217,0.0,0.0,64,0.00,,,0.00,,2013-07-09 11:53:00,
2013-07-09 06:02:00,71.0,58.0,29.80,SW,217,0.0,0.0,64,0.00,,,0.00,,2013-07-09 12:02:00,
2013-07-09 06:11:00,71.0,58.0,29.80,SW,217,0.0,0.0,64,0.00,,,0.00,,2013-07-09 12:11:00,
2013-07-09 06:22:00,70.0,58.0,29.80,SW,217,0.0,0.0,65,0.00,,,0.00,,2013-07-09 12:22:00,
2013-07-09 06:33:00,71.0,59.0,29.80,SW,217,0.0,1.0,65,0.00,,,0.00,,2013-07-09 12:33:00,
2013-07-09 06:43:00,71.0,59.0,29.80,SW,217,0.0,1.0,65,0.00,,,0.00,,2013-07-09 12:43:00,
2013-07-09 06:52:00,72.0,58.0,29.81,NNE,23,0.0,2.0,62,0.00,,,0.00,,2013-07-09 12:52:00,
2013-07-09 07:01:00,72.0,58.0,29.81,NNE,23,0.0,1.0,62,0.00,,,0.00,,2013-07-09 13:01:00,
2013-07-09 07:11:00,72.0,58.0,29.81,NNE,23,0.0,1.0,62,0.00,,,0.00,,2013-07-09 13:11:00,
2013-07-09 07:22:00,73.0,59.0,29.82,North,11,0.0,2.0,61,0.00,,,0.00,,2013-07-09 13:22:00,
2013-07-09 07:33:00,73.0,59.0,29.83,NNE,17,0.0,3.0,61,0.00,,,0.00,,2013-07-09 13:33:00,
2013-07-09 07:43:00,73.0,59.0,29.83,NNE,17,0.0,3.0,61,0.00,,,0.00,,2013-07-09 13:43:00,
2013-07-09 07:53:00,74.0,59.0,29.83,NNE,32,0.0,2.0,59,0.00,,,0.00,,2013-07-09 13:53:00,
2013-07-09 08:01:00,75.0,59.0,29.83,NE,51,0.0,6.0,58,0.00,,,0.00,,2013-07-09 14:01:00,
2013-07-09 08:11:00,75.0,59.0,29.83,NE,51,0.0,6.0,58,0.00,,,0.00,,2013-07-09 14:11:00,
2013-07-09 08:22:00,76.0,59.0,29.83,ESE,104,1.0,4.0,56,0.00,,,0.00,,2013-07-09 14:22:00,
2013-07-09 08:34:00,76.0,60.0,29.84,NE,46,0.0,1.0,57,0.00,,,0.00,,2013-07-09 14:34:00,
2013-07-09 08:43:00,76.0,60.0,29.84,NE,46,0.0,1.0,57,0.00,,,0.00,,2013-07-09 14:43:00,
2013-07-09 08:53:00,78.0,61.0,29.84,NE,37,0.0,1.0,56,0.00,,,0.00,,2013-07-09 14:53:00,
2013-07-09 09:01:00,80.0,60.0,29.84,NNW,335,0.0,3.0,50,0.00,,,0.00,,2013-07-09 15:01:00,
2013-07-09 09:12:00,80.0,60.0,29.84,NNW,335,0.0,3.0,50,0.00,,,0.00,,2013-07-09 15:12:00,
2013-07-09 09:22:00,81.0,59.0,29.84,NE,47,0.0,2.0,47,0.00,,,0.00,,2013-07-09 15:22:00,
2013-07-09 09:33:00,83.0,62.0,29.84,NE,51,0.0,1.0,49,0.00,,,0.00,,2013-07-09 15:33:00,
2013-07-09 09:43:00,83.0,62.0,29.84,NE,51,0.0,1.0,49,0.00,,,0.00,,2013-07-09 15:43:00,
2013-07-09 09:52:00,85.0,58.0,29.84,East,94,0.0,3.0,40,0.00,,,0.00,,2013-07-09 15:52:00,
2013-07-09 10:02:00,86.0,62.0,29.83,East,96,0.0,1.0,44,0.00,,,0.00,,2013-07-09 16:02:00,
2013-07-09 10:11:00,86.0,62.0,29.83,East,96,0.0,1.0,44,0.00,,,0.00,,2013-07-09 16:11:00,
2013-07-09 10:22:00,88.0,61.0,29.83,SSW,210,0.0,1.0,41,0.00,,,0.00,,2013-07-09 16:22:00,
2013-07-09 10:34:00,90.0,59.0,29.83,SSW,197,0.0,1.0,35,0.00,,,0.00,,2013-07-09 16:34:00,
2013-07-09 10:43:00,90.0,59.0,29.83,SSW,197,0.0,1.0,35,0.00,,,0.00,,2013-07-09 16:43:00,
2013-07-09 10:53:00,89.0,56.0,29.83,NE,51,0.0,1.0,33,0.00,,,0.00,,2013-07-09 16:53:00,
2013-07-09 11:02:00,90.0,58.0,29.83,WNW,300,0.0,2.0,34,0.00,,,0.00,,2013-07-09 17:02:00,
2013-07-09 11:11:00,90.0,58.0,29.83,WNW,300,0.0,2.0,34,0.00,,,0.00,,2013-07-09 17:11:00,
2013-07-09 11:22:00,92.0,59.0,29.83,SSW,212,0.0,4.0,33,0.00,,,0.00,,2013-07-09 17:22:00,
2013-07-09 11:35:00,93.0,59.0,29.82,NE,46,0.0,4.0,32,0.00,,,0.00,,2013-07-09 17:35:00,
2013-07-09 11:45:00,93.0,59.0,29.82,NE,46,0.0,4.0,32,0.00,,,0.00,,2013-07-09 17:45:00,
2013-07-09 11:53:00,94.0,60.0,29.81,ENE,77,0.0,1.0,32,0.00,,,0.00,,2013-07-09 17:53:00,
2013-07-09 12:02:00,94.0,60.0,29.80,NNE,29,0.0,2.0,33,0.00,,,0.00,,2013-07-09 18:02:00,
2013-07-09 12:11:00,94.0,60.0,29.80,NNE,29,0.0,2.0,33,0.00,,,0.00,,2013-07-09 18:11:00,
2013-07-09 12:22:00,94.0,58.0,29.80,SSW,197,0.0,2.0,30,0.00,,,0.00,,2013-07-09 18:22:00,
2013-07-09 12:42:00,95.0,58.0,29.80,ESE,105,0.0,2.0,29,0.00,,,0.00,,2013-07-09 18:42:00,
2013-07-09 12:52:00,96.0,59.0,29.79,WSW,253,0.0,2.0,29,0.00,,,0.00,,2013-07-09 18:52:00,
2013-07-09 13:01:00,96.0,61.0,29.78,ENE,74,0.0,2.0,32,0.00,,,0.00,,2013-07-09 19:01:00,
2013-07-09 13:11:00,96.0,61.0,29.78,ENE,74,0.0,2.0,32,0.00,,,0.00,,2013-07-09 19:11:00,
2013-07-09 13:22:00,97.0,55.0,29.78,East,94,1.0,4.0,25,0.00,,,0.00,,2013-07-09 19:22:00,
2013-07-09 13:33:00,97.0,59.0,29.77,NNW,333,0.0,1.0,29,0.00,,,0.00,,2013-07-09 19:33:00,
2013-07-09 13:42:00,97.0,59.0,29.77,NNW,333,0.0,1.0,29,0.00,,,0.00,,2013-07-09 19:42:00,
2013-07-09 13:52:00,97.0,60.0,29.76,SW,224,0.0,3.0,30,0.00,,,0.00,,2013-07-09 19:52:00,
2013-07-09 14:01:00,98.0,56.0,29.75,WSW,248,2.0,3.0,25,0.00,,,0.00,,2013-07-09 20:01:00,
2013-07-09 14:11:00,98.0,56.0,29.75,WSW,248,2.0,3.0,25,0.00,,,0.00,,2013-07-09 20:11:00,
2013-07-09 14:21:00,97.0,58.0,29.75,West,271,0.0,4.0,28,0.00,,,0.00,,2013-07-09 20:21:00,
2013-07-09 14:32:00,97.0,55.0,29.74,ENE,60,3.0,6.0,25,0.00,,,0.00,,2013-07-09 20:32:00,
2013-07-09 14:42:00,97.0,55.0,29.74,ENE,60,3.0,6.0,25,0.00,,,0.00,,2013-07-09 20:42:00,
2013-07-09 14:52:00,95.0,56.0,29.73,North,11,0.0,1.0,27,0.00,,,0.00,,2013-07-09 20:52:00,
2013-07-09 15:01:00,96.0,59.0,29.72,WSW,240,1.0,3.0,29,0.00,,,0.00,,2013-07-09 21:01:00,
2013-07-09 15:11:00,96.0,59.0,29.72,WSW,240,1.0,3.0,29,0.00,,,0.00,,2013-07-09 21:11:00,
2013-07-09 15:22:00,96.0,60.0,29.71,West,264,0.0,3.0,31,0.00,,,0.00,,2013-07-09 21:22:00,
2013-07-09 15:42:00,97.0,55.0,29.70,NNW,342,1.0,3.0,25,0.00,,,0.00,,2013-07-09 21:42:00,
2013-07-09 15:52:00,99.0,52.0,29.70,ESE,114,0.0,4.0,21,0.00,,,0.00,,2013-07-09 21:52:00,
2013-07-09 16:01:00,99.0,58.0,29.69,WSW,249,0.0,4.0,26,0.00,,,0.00,,2013-07-09 22:01:00,
2013-07-09 16:11:00,99.0,58.0,29.69,WSW,249,0.0,4.0,26,0.00,,,0.00,,2013-07-09 22:11:00,
2013-07-09 16:22:00,96.0,54.0,29.68,WSW,240,0.0,2.0,25,0.00,,,0.00,,2013-07-09 22:22:00,
2013-07-09 16:33:00,95.0,56.0,29.67,SSE,166,2.0,9.0,27,0.00,,,0.00,,2013-07-09 22:33:00,
2013-07-09 16:42:00,95.0,56.0,29.67,SSE,166,2.0,9.0,27,0.00,,,0.00,,2013-07-09 22:42:00,
2013-07-09 16:53:00,98.0,57.0,29.66,NW,313,2.0,6.0,26,0.00,,,0.00,,2013-07-09 22:53:00,
2013-07-09 17:02:00,99.0,56.0,29.66,SE,132,0.0,2.0,24,0.00,,,0.00,,2013-07-09 23:02:00,
2013-07-09 17:11:00,99.0,56.0,29.66,SE,132,0.0,2.0,24,0.00,,,0.00,,2013-07-09 23:11:00,
2013-07-09 17:22:00,97.0,58.0,29.65,WSW,256,0.0,2.0,28,0.00,,,0.00,,2013-07-09 23:22:00,
2013-07-09 17:33:00,96.0,59.0,29.65,West,276,1.0,4.0,30,0.00,,,0.00,,2013-07-09 23:33:00,
2013-07-09 17:43:00,96.0,59.0,29.65,West,276,1.0,4.0,30,0.00,,,0.00,,2013-07-09 23:43:00,
2013-07-09 17:53:00,98.0,58.0,29.64,SSE,153,0.0,3.0,27,0.00,,,0.00,,2013-07-09 23:53:00,
2013-07-09 18:01:00,97.0,56.0,29.64,SSE,158,2.0,5.0,26,0.00,,,0.00,,2013-07-10 00:01:00,
2013-07-09 18:11:00,97.0,56.0,29.64,SSE,158,2.0,5.0,26,0.00,,,0.00,,2013-07-10 00:11:00,
2013-07-09 18:22:00,97.0,55.0,29.63,South,186,1.0,5.0,25,0.00,,,0.00,,2013-07-10 00:22:00,
2013-07-09 18:33:00,96.0,57.0,29.63,SSE,151,0.0,2.0,27,0.00,,,0.00,,2013-07-10 00:33:00,
2013-07-09 18:42:00,96.0,57.0,29.63,SSE,151,0.0,2.0,27,0.00,,,0.00,,2013-07-10 00:42:00,
2013-07-09 18:52:00,94.0,58.0,29.63,East,94,0.0,2.0,30,0.00,,,0.00,,2013-07-10 00:52:00,
2013-07-09 19:01:00,93.0,57.0,29.63,NNE,33,0.0,1.0,30,0.00,,,0.00,,2013-07-10 01:01:00,
2013-07-09 19:11:00,93.0,57.0,29.63,NNE,33,0.0,1.0,30,0.00,,,0.00,,2013-07-10 01:11:00,
2013-07-09 19:22:00,93.0,56.0,29.63,ESE,122,0.0,1.0,29,0.00,,,0.00,,2013-07-10 01:22:00,
2013-07-09 19:33:00,91.0,59.0,29.64,ESE,123,0.0,1.0,35,0.00,,,0.00,,2013-07-10 01:33:00,
2013-07-09 19:43:00,91.0,59.0,29.64,ESE,123,0.0,1.0,35,0.00,,,0.00,,2013-07-10 01:43:00,
2013-07-09 19:53:00,91.0,59.0,29.64,East,96,0.0,2.0,35,0.00,,,0.00,,2013-07-10 01:53:00,
2013-07-09 20:22:00,90.0,53.0,29.65,SW,219,0.0,2.0,29,0.00,,,0.00,,2013-07-10 02:22:00,
2013-07-09 20:34:00,90.0,53.0,29.65,SW,219,0.0,2.0,29,0.00,,,0.00,,2013-07-10 02:34:00,
2013-07-09 20:43:00,90.0,50.0,29.65,SE,130,1.0,3.0,26,0.00,,,0.00,,2013-07-10 02:43:00,
2013-07-09 20:53:00,91.0,50.0,29.66,South,181,1.0,3.0,25,0.00,,,0.00,,2013-07-10 02:53:00,
2013-07-09 21:01:00,91.0,50.0,29.66,South,181,1.0,3.0,25,0.00,,,0.00,,2013-07-10 03:01:00,
2013-07-09 21:11:00,91.0,51.0,29.67,ESE,107,0.0,2.0,26,0.00,,,0.00,,2013-07-10 03:11:00,
2013-07-09 21:22:00,91.0,49.0,29.67,SE,130,0.0,4.0,24,0.00,,,0.00,,2013-07-10 03:22:00,
2013-07-09 21:32:00,91.0,49.0,29.67,SE,130,0.0,4.0,24,0.00,,,0.00,,2013-07-10 03:32:00,
2013-07-09 21:43:00,90.0,48.0,29.68,SE,127,0.0,2.0,24,0.00,,,0.00,,2013-07-10 03:43:00,
2013-07-09 21:52:00,90.0,48.0,29.69,ESE,114,1.0,3.0,24,0.00,,,0.00,,2013-07-10 03:52:00,
2013-07-09 22:01:00,90.0,48.0,29.69,ESE,114,1.0,3.0,24,0.00,,,0.00,,2013-07-10 04:01:00,
2013-07-09 22:11:00,90.0,47.0,29.69,ESE,116,2.0,5.0,23,0.00,,,0.00,,2013-07-10 04:11:00,
2013-07-09 22:22:00,90.0,52.0,29.70,South,177,2.0,11.0,28,0.00,,,0.00,,2013-07-10 04:22:00,
2013-07-09 22:32:00,90.0,52.0,29.70,South,177,2.0,11.0,28,0.00,,,0.00,,2013-07-10 04:32:00,
2013-07-09 22:43:00,89.0,53.0,29.70,SE,138,1.0,4.0,29,0.00,,,0.00,,2013-07-10 04:43:00,
2013-07-09 22:52:00,88.0,53.0,29.71,ESE,120,0.0,5.0,30,0.00,,,0.00,,2013-07-10 04:52:00,
2013-07-09 23:02:00,88.0,53.0,29.71,ESE,120,0.0,5.0,30,0.00,,,0.00,,2013-07-10 05:02:00,
2013-07-09 23:12:00,88.0,54.0,29.71,ESE,111,1.0,4.0,31,0.00,,,0.00,,2013-07-10 05:12:00,
2013-07-09 23:22:00,88.0,54.0,29.72,SE,127,1.0,5.0,31,0.00,,,0.00,,2013-07-10 05:22:00,
2013-07-09 23:32:00,88.0,54.0,29.72,SE,127,1.0,5.0,31,0.00,,,0.00,,2013-07-10 05:32:00,
2013-07-09 23:42:00,87.0,54.0,29.73,ESE,120,0.0,5.0,33,0.00,,,0.00,,2013-07-10 05:42:00,
2013-07-09 23:52:00,87.0,54.0,29.73,SE,140,1.0,6.0,33,0.00,,,0.00,,2013-07-10 05:52:00,